Time;durP1;ratioP1;P1;durP2;ratioP2;P2;SDS_P1;SDS_P2;PMS_P1;PMS_P2;Temp;Humidity;BMP_temperature;BMP_pressure;BME280_temperature;BME280_humidity;BME280_pressure;Samples;Min_cycle;Max_cycle;Signal;HPM_P1;HPM_P2
2022/10/16 00:00:38;;;;;;;8.85;1.70;;;12.20;99.90;;;;;;5053293;28;20118;-80
2022/10/16 00:03:04;;;;;;;6.43;1.67;;;12.20;99.90;;;;;;5052914;28;20069;-81
2022/10/16 00:05:30;;;;;;;8.23;1.70;;;12.20;99.90;;;;;;5036835;28;20047;-81
2022/10/16 00:07:55;;;;;;;7.80;2.00;;;12.20;99.90;;;;;;5052948;28;20040;-81
2022/10/16 00:10:21;;;;;;;5.07;1.83;;;12.20;99.90;;;;;;5053208;28;20076;-81
2022/10/16 00:12:47;;;;;;;6.65;2.00;;;12.20;99.90;;;;;;5052628;28;20041;-80
2022/10/16 00:15:13;;;;;;;7.60;1.80;;;12.10;99.90;;;;;;5053264;28;20570;-80
2022/10/16 00:17:38;;;;;;;4.45;1.67;;;12.10;99.90;;;;;;5052805;28;20091;-81
2022/10/16 00:20:04;;;;;;;5.20;1.63;;;12.20;99.90;;;;;;5036625;28;20509;-81
2022/10/16 00:22:30;;;;;;;6.80;1.90;;;12.20;99.90;;;;;;5052805;28;20041;-80
2022/10/16 00:24:56;;;;;;;4.93;1.88;;;12.20;99.90;;;;;;5052931;28;20498;-83
2022/10/16 00:27:21;;;;;;;5.35;1.70;;;12.10;99.90;;;;;;5052600;28;20127;-80
2022/10/16 00:29:51;;;;;;;6.13;1.60;;;12.20;99.90;;;;;;5053101;28;20464;-81
2022/10/16 00:32:20;;;;;;;10.32;2.10;;;12.10;99.90;;;;;;5052099;28;20091;-81
2022/10/16 00:34:46;;;;;;;5.90;1.63;;;12.20;99.90;;;;;;5052975;28;20068;-81
2022/10/16 00:37:12;;;;;;;7.80;1.90;;;12.20;99.90;;;;;;5052363;28;20084;-80
2022/10/16 00:39:38;;;;;;;5.38;1.58;;;12.20;99.90;;;;;;5052493;28;20037;-80
2022/10/16 00:42:03;;;;;;;6.43;1.80;;;12.20;99.90;;;;;;5052033;28;20043;-80
2022/10/16 00:44:52;;;;;;;6.03;1.70;;;12.10;99.90;;;;;;5052571;28;20045;-80
2022/10/16 00:47:22;;;;;;;4.60;1.60;;;12.20;99.90;;;;;;5051156;28;20453;-80
2022/10/16 00:49:51;;;;;;;6.90;1.60;;;12.20;99.90;;;;;;5052403;28;20439;-80
2022/10/16 00:52:17;;;;;;;4.32;1.50;;;12.20;99.90;;;;;;5037811;28;20045;-81
2022/10/16 00:54:43;;;;;;;6.88;1.60;;;12.20;99.90;;;;;;5052504;28;20399;-81
2022/10/16 00:57:09;;;;;;;6.95;1.70;;;12.20;99.90;;;;;;5051940;28;20044;-81
2022/10/16 00:59:40;;;;;;;7.25;1.42;;;12.20;99.90;;;;;;5051844;28;20037;-82
2022/10/16 01:02:10;;;;;;;3.90;1.40;;;12.20;99.90;;;;;;5051875;28;20498;-80
2022/10/16 01:04:40;;;;;;;4.43;1.65;;;12.30;99.90;;;;;;5035247;28;20044;-80
2022/10/16 01:07:26;;;;;;;6.22;1.67;;;12.30;99.90;;;;;;5051786;28;20025;-80
2022/10/16 01:10:14;;;;;;;10.73;2.00;;;12.30;99.90;;;;;;5051598;28;20037;-79
2022/10/16 01:12:51;;;;;;;4.90;1.35;;;12.30;99.90;;;;;;5051441;28;20090;-80
2022/10/16 01:15:40;;;;;;;4.38;1.40;;;12.30;99.90;;;;;;5051842;28;20033;-80
2022/10/16 01:18:16;;;;;;;6.85;1.55;;;12.30;99.90;;;;;;5051875;28;20041;-80
2022/10/16 01:20:47;;;;;;;6.88;1.63;;;12.40;99.90;;;;;;5035765;28;20407;-79
2022/10/16 01:23:25;;;;;;;6.88;2.00;;;12.30;99.90;;;;;;5051668;28;20129;-80
2022/10/16 01:26:25;;;;;;;6.43;1.42;;;12.30;99.90;;;;;;5034819;28;20112;-81
2022/10/16 01:29:07;;;;;;;9.38;1.80;;;12.30;99.90;;;;;;5051427;28;20521;-80
2022/10/16 01:31:39;;;;;;;5.07;1.23;;;12.40;99.90;;;;;;5050703;28;20041;-81
2022/10/16 01:34:28;;;;;;;6.72;1.63;;;12.40;99.90;;;;;;5034658;28;20063;-81
2022/10/16 01:37:02;;;;;;;6.88;1.70;;;12.40;99.90;;;;;;5051299;28;20095;-79
2022/10/16 01:39:32;;;;;;;4.47;1.40;;;12.30;99.90;;;;;;5051486;28;20123;-80
2022/10/16 01:42:25;;;;;;;2.97;1.17;;;12.30;99.90;;;;;;5051810;28;20425;-81
2022/10/16 01:44:53;;;;;;;4.90;1.67;;;12.30;99.90;;;;;;5027620;28;20049;-81
2022/10/16 01:47:23;;;;;;;4.10;1.52;;;12.30;99.90;;;;;;5051401;28;20072;-81
2022/10/16 01:49:50;;;;;;;2.90;1.33;;;12.30;99.90;;;;;;5051392;28;20107;-82
2022/10/16 01:52:19;;;;;;;4.97;1.48;;;12.40;99.90;;;;;;5051008;28;20045;-81
2022/10/16 01:54:49;;;;;;;7.00;1.60;;;12.40;99.90;;;;;;5034436;28;20553;-81
2022/10/16 01:57:17;;;;;;;4.90;1.50;;;12.40;99.90;;;;;;5034793;28;20410;-81
2022/10/16 01:59:48;;;;;;;4.97;1.42;;;12.30;99.90;;;;;;5051476;28;20033;-81
2022/10/16 02:02:16;;;;;;;4.50;1.40;;;12.40;99.90;;;;;;5050931;28;20033;-80
2022/10/16 02:04:46;;;;;;;4.60;1.48;;;12.40;99.90;;;;;;5051180;28;20403;-81
2022/10/16 02:07:12;;;;;;;3.55;1.63;;;12.40;99.90;;;;;;5051464;28;20088;-82
2022/10/16 02:09:38;;;;;;;4.60;1.65;;;12.40;99.90;;;;;;5051459;28;20041;-82
2022/10/16 02:12:29;;;;;;;2.88;1.30;;;12.50;99.90;;;;;;5034690;28;20029;-81
2022/10/16 02:14:55;;;;;;;5.15;1.60;;;12.50;99.90;;;;;;5050640;28;20056;-81
2022/10/16 02:17:21;;;;;;;7.00;1.63;;;12.50;99.90;;;;;;5050922;28;20512;-80
2022/10/16 02:19:49;;;;;;;6.00;1.90;;;12.50;99.90;;;;;;5051379;28;20048;-82
2022/10/16 02:22:46;;;;;;;4.57;1.55;;;12.50;99.90;;;;;;5050575;28;20509;-80
2022/10/16 02:25:31;;;;;;;3.63;1.40;;;12.50;99.90;;;;;;5049921;28;20053;-79
2022/10/16 02:28:17;;;;;;;4.57;1.50;;;12.50;99.90;;;;;;5051192;28;20053;-81
2022/10/16 02:30:51;;;;;;;5.93;1.40;;;12.60;99.90;;;;;;5051003;28;20041;-81
2022/10/16 02:33:19;;;;;;;3.60;1.60;;;12.60;99.90;;;;;;5050735;28;20055;-80
2022/10/16 02:35:47;;;;;;;5.93;1.23;;;12.60;99.90;;;;;;5050902;28;20037;-81
2022/10/16 02:38:14;;;;;;;4.13;1.40;;;12.60;99.90;;;;;;5050678;28;20037;-82
2022/10/16 02:40:41;;;;;;;5.25;1.50;;;12.60;99.90;;;;;;5050545;28;20665;-80
2022/10/16 02:43:07;;;;;;;4.25;1.30;;;12.60;99.90;;;;;;5054509;28;20041;-82
2022/10/16 02:45:33;;;;;;;3.33;1.50;;;12.70;99.90;;;;;;5055083;28;20116;-80
2022/10/16 02:47:58;;;;;;;5.93;1.60;;;12.70;99.90;;;;;;5047650;28;20072;-80
2022/10/16 02:50:24;;;;;;;4.88;1.20;;;12.70;99.90;;;;;;5048858;28;20072;-81
2022/10/16 02:52:50;;;;;;;3.60;1.30;;;12.60;99.90;;;;;;5054883;28;20502;-81
2022/10/16 02:55:16;;;;;;;3.60;1.40;;;12.60;99.90;;;;;;5038470;28;20068;-80
2022/10/16 02:57:41;;;;;;;4.68;1.50;;;12.70;99.90;;;;;;5038418;28;20059;-81
2022/10/16 03:00:13;;;;;;;4.88;1.50;;;12.70;99.90;;;;;;5055041;28;20040;-82
2022/10/16 03:02:39;;;;;;;3.13;1.48;;;12.70;99.90;;;;;;5054265;28;20059;-80
2022/10/16 03:05:05;;;;;;;2.55;1.20;;;12.60;99.90;;;;;;5054619;28;20123;-82
2022/10/16 03:07:30;;;;;;;6.38;1.42;;;12.60;99.90;;;;;;5054564;28;20052;-82
2022/10/16 03:09:56;;;;;;;4.38;1.48;;;12.60;99.90;;;;;;5054528;28;20402;-81
2022/10/16 03:12:21;;;;;;;2.47;1.15;;;12.60;99.90;;;;;;5037572;28;20568;-81
2022/10/16 03:14:47;;;;;;;5.68;1.90;;;12.60;99.90;;;;;;5054435;28;20081;-81
2022/10/16 03:17:13;;;;;;;4.65;1.17;;;12.60;99.90;;;;;;5054546;28;20037;-80
2022/10/16 03:19:39;;;;;;;2.60;1.30;;;12.60;99.90;;;;;;5054838;28;20098;-80
2022/10/16 03:22:04;;;;;;;2.53;1.40;;;12.70;99.90;;;;;;5053976;28;20037;-82
2022/10/16 03:24:30;;;;;;;3.78;1.40;;;12.60;99.90;;;;;;5054045;28;20045;-81
2022/10/16 03:26:55;;;;;;;3.10;1.40;;;12.60;99.90;;;;;;5054257;28;20045;-82
2022/10/16 03:29:21;;;;;;;3.88;1.33;;;12.60;99.90;;;;;;5037851;28;20043;-81
2022/10/16 03:31:48;;;;;;;5.43;1.40;;;12.60;99.90;;;;;;5054064;28;20106;-81
2022/10/16 03:34:13;;;;;;;4.00;1.45;;;12.60;99.90;;;;;;5054042;28;20132;-80
2022/10/16 03:36:39;;;;;;;4.28;1.50;;;12.60;99.90;;;;;;5037393;28;20120;-80
2022/10/16 03:39:04;;;;;;;2.97;1.30;;;12.60;99.90;;;;;;5053657;28;20055;-82
2022/10/16 03:41:30;;;;;;;6.60;1.52;;;12.60;99.90;;;;;;5053643;28;20513;-80
2022/10/16 03:43:55;;;;;;;3.20;1.30;;;12.50;99.90;;;;;;5053560;28;20506;-80
2022/10/16 03:46:21;;;;;;;3.83;1.60;;;12.50;99.90;;;;;;5053665;28;20048;-80
2022/10/16 03:48:46;;;;;;;3.00;1.50;;;12.50;99.90;;;;;;5053116;28;20128;-81
2022/10/16 03:51:12;;;;;;;5.53;1.70;;;12.50;99.90;;;;;;5053067;28;20045;-80
2022/10/16 03:53:38;;;;;;;3.70;1.20;;;12.50;99.90;;;;;;5036081;28;20037;-80
2022/10/16 03:56:03;;;;;;;6.55;1.55;;;12.50;99.90;;;;;;5053489;28;20090;-80
2022/10/16 03:58:29;;;;;;;6.70;1.52;;;12.50;99.90;;;;;;5053403;28;20044;-80
2022/10/16 04:00:55;;;;;;;3.75;1.50;;;12.50;99.90;;;;;;5041063;28;20033;-81
2022/10/16 04:03:21;;;;;;;2.47;1.30;;;12.50;99.90;;;;;;5051438;28;20041;-81
2022/10/16 04:05:46;;;;;;;3.05;1.40;;;12.40;99.90;;;;;;5053346;28;20051;-80
2022/10/16 04:08:12;;;;;;;6.15;1.95;;;12.40;99.90;;;;;;5036691;28;20033;-80
2022/10/16 04:10:37;;;;;;;5.72;1.67;;;12.40;99.90;;;;;;5053200;28;20122;-81
2022/10/16 04:13:03;;;;;;;3.15;1.40;;;12.40;99.90;;;;;;5052933;28;20437;-81
2022/10/16 04:15:29;;;;;;;5.03;1.75;;;12.40;99.90;;;;;;5053565;28;20314;-80
2022/10/16 04:17:54;;;;;;;3.60;1.77;;;12.40;99.90;;;;;;5053516;28;20064;-80
2022/10/16 04:20:20;;;;;;;4.05;1.90;;;12.30;99.90;;;;;;5052804;28;20047;-81
2022/10/16 04:22:45;;;;;;;5.18;1.77;;;12.30;99.90;;;;;;5053217;28;20125;-79
2022/10/16 04:25:11;;;;;;;3.72;1.35;;;12.30;99.90;;;;;;5053384;28;20049;-80
2022/10/16 04:27:37;;;;;;;6.00;1.58;;;12.20;99.90;;;;;;5053310;28;20075;-81
2022/10/16 04:30:04;;;;;;;2.70;1.48;;;12.20;99.90;;;;;;5052890;28;20514;-81
2022/10/16 04:32:29;;;;;;;3.83;1.40;;;12.20;99.90;;;;;;5052608;28;20076;-81
2022/10/16 04:34:55;;;;;;;3.10;1.40;;;12.20;99.90;;;;;;5053130;28;20029;-81
2022/10/16 04:37:25;;;;;;;4.65;1.80;;;12.20;99.90;;;;;;5052974;28;20049;-80
2022/10/16 04:39:51;;;;;;;3.75;1.50;;;12.20;99.90;;;;;;5053068;28;20410;-81
2022/10/16 04:42:17;;;;;;;5.28;1.70;;;12.20;99.90;;;;;;5052532;28;20045;-81
2022/10/16 04:44:42;;;;;;;4.70;1.75;;;12.20;99.90;;;;;;5052760;28;20067;-80
2022/10/16 04:47:08;;;;;;;3.53;1.60;;;12.20;99.90;;;;;;5052849;28;20713;-81
2022/10/16 04:49:34;;;;;;;5.00;1.80;;;12.20;99.90;;;;;;5049943;28;20045;-81
2022/10/16 04:51:59;;;;;;;3.97;1.88;;;12.30;99.90;;;;;;5052182;28;20083;-80
2022/10/16 04:54:25;;;;;;;7.57;1.90;;;12.30;99.90;;;;;;5052176;28;20568;-80
2022/10/16 04:56:51;;;;;;;4.82;2.08;;;12.30;99.90;;;;;;5051960;28;20033;-79
2022/10/16 04:59:18;;;;;;;9.25;2.00;;;12.30;99.90;;;;;;5051982;28;20068;-80
2022/10/16 05:01:44;;;;;;;3.35;1.73;;;12.30;99.90;;;;;;5051948;28;20045;-80
2022/10/16 05:04:11;;;;;;;5.10;1.73;;;12.40;99.90;;;;;;5051547;28;20072;-80
2022/10/16 05:06:38;;;;;;;3.75;1.77;;;12.40;99.90;;;;;;5052055;28;20043;-79
2022/10/16 05:09:05;;;;;;;3.03;1.70;;;12.30;99.90;;;;;;5052482;28;20041;-80
2022/10/16 05:11:31;;;;;;;5.25;1.90;;;12.30;99.90;;;;;;5051683;28;20047;-80
2022/10/16 05:13:57;;;;;;;5.32;1.90;;;12.30;99.90;;;;;;5035168;28;20037;-80
2022/10/16 05:16:22;;;;;;;6.78;1.90;;;12.30;99.90;;;;;;5051716;28;20052;-79
2022/10/16 05:18:48;;;;;;;4.80;1.70;;;12.20;99.90;;;;;;5051192;28;20039;-79
2022/10/16 05:21:14;;;;;;;6.72;1.95;;;12.20;99.90;;;;;;5051514;28;20406;-80
2022/10/16 05:23:39;;;;;;;6.82;1.77;;;12.20;99.90;;;;;;5051479;28;20098;-79
2022/10/16 05:26:05;;;;;;;4.22;1.98;;;12.20;99.90;;;;;;5051948;28;20120;-80
2022/10/16 05:28:30;;;;;;;6.70;2.13;;;12.20;99.90;;;;;;5051194;28;20126;-80
2022/10/16 05:30:57;;;;;;;8.10;1.98;;;12.20;99.90;;;;;;5051173;28;20045;-80
2022/10/16 05:33:24;;;;;;;7.30;2.22;;;12.20;99.90;;;;;;5051628;28;20048;-81
2022/10/16 05:35:50;;;;;;;4.65;1.98;;;12.20;99.90;;;;;;5051401;28;20052;-80
2022/10/16 05:38:17;;;;;;;5.53;2.13;;;12.20;99.90;;;;;;5051872;28;20402;-79
2022/10/16 05:40:43;;;;;;;5.40;2.33;;;12.20;99.90;;;;;;5051859;28;20402;-80
2022/10/16 05:43:08;;;;;;;4.38;2.45;;;12.20;99.90;;;;;;5051232;28;20040;-82
2022/10/16 05:45:34;;;;;;;4.60;2.30;;;12.20;99.90;;;;;;5051618;28;20047;-81
2022/10/16 05:48:00;;;;;;;5.45;2.30;;;12.30;99.90;;;;;;5051742;28;20452;-81
2022/10/16 05:50:26;;;;;;;10.05;2.50;;;12.30;99.90;;;;;;5051529;28;20052;-81
2022/10/16 05:52:52;;;;;;;5.88;2.55;;;12.30;99.90;;;;;;5051593;28;20079;-80
2022/10/16 05:55:17;;;;;;;5.82;2.38;;;12.30;99.90;;;;;;5051507;28;20048;-82
2022/10/16 05:57:43;;;;;;;4.30;2.25;;;12.30;99.90;;;;;;5051750;28;20035;-81
2022/10/16 06:00:09;;;;;;;4.13;2.22;;;12.30;99.90;;;;;;5051816;28;20033;-82
2022/10/16 06:02:34;;;;;;;5.30;2.40;;;12.30;99.90;;;;;;5051323;28;20029;-80
2022/10/16 06:05:00;;;;;;;5.47;2.28;;;12.30;99.90;;;;;;5051282;28;20079;-81
2022/10/16 06:07:25;;;;;;;4.90;2.35;;;12.30;99.90;;;;;;5051467;28;20037;-81
2022/10/16 06:09:52;;;;;;;5.07;2.80;;;12.30;99.90;;;;;;5051480;28;20498;-81
2022/10/16 06:12:18;;;;;;;5.28;2.60;;;12.30;99.90;;;;;;5034702;28;20091;-81
2022/10/16 06:14:48;;;;;;;6.90;2.85;;;12.30;99.90;;;;;;5050932;28;20129;-81
2022/10/16 06:17:14;;;;;;;5.10;2.55;;;12.30;99.90;;;;;;5050985;28;20072;-81
2022/10/16 06:19:40;;;;;;;7.22;2.90;;;12.30;99.90;;;;;;5051383;28;20041;-82
2022/10/16 06:22:06;;;;;;;6.25;2.50;;;12.40;99.90;;;;;;5034192;28;20037;-83
2022/10/16 06:24:32;;;;;;;5.88;2.50;;;12.40;99.90;;;;;;5051000;28;20040;-81
2022/10/16 06:26:57;;;;;;;9.20;2.75;;;12.40;99.90;;;;;;5050862;28;20037;-81
2022/10/16 06:29:23;;;;;;;4.68;2.70;;;12.50;99.90;;;;;;5051870;28;20554;-80
2022/10/16 06:31:48;;;;;;;4.85;2.63;;;12.50;99.90;;;;;;5034366;28;20118;-82
2022/10/16 06:34:14;;;;;;;5.78;2.60;;;12.50;99.90;;;;;;5050728;28;20051;-82
2022/10/16 06:36:40;;;;;;;4.32;2.60;;;12.50;99.90;;;;;;5051190;28;20124;-80
2022/10/16 06:39:07;;;;;;;6.20;2.53;;;12.50;99.90;;;;;;5051038;28;20033;-80
2022/10/16 06:41:33;;;;;;;5.50;2.63;;;12.50;99.90;;;;;;5050608;28;20041;-82
2022/10/16 06:43:59;;;;;;;6.90;2.55;;;12.60;99.90;;;;;;5034170;28;20099;-82
2022/10/16 06:46:25;;;;;;;5.90;2.42;;;12.60;99.90;;;;;;5050891;28;20037;-82
2022/10/16 06:48:53;;;;;;;4.88;2.40;;;12.60;99.90;;;;;;5047516;28;20037;-81
2022/10/16 06:51:21;;;;;;;6.28;2.13;;;12.60;99.90;;;;;;5038298;28;20590;-81
2022/10/16 06:53:51;;;;;;;5.00;2.20;;;12.70;99.90;;;;;;5051178;28;20064;-80
2022/10/16 06:56:22;;;;;;;7.20;2.70;;;12.70;99.90;;;;;;5050961;28;20041;-82
2022/10/16 06:58:48;;;;;;;7.85;2.50;;;12.70;99.90;;;;;;5051087;28;20453;-81
2022/10/16 07:01:15;;;;;;;6.82;2.28;;;12.70;99.90;;;;;;5050277;28;20041;-81
2022/10/16 07:03:43;;;;;;;4.40;2.25;;;12.70;99.90;;;;;;5051198;28;20047;-82
2022/10/16 07:06:10;;;;;;;5.95;2.75;;;12.70;99.90;;;;;;5050794;28;20044;-81
2022/10/16 07:08:38;;;;;;;7.32;2.55;;;12.70;99.90;;;;;;5050946;28;20087;-81
2022/10/16 07:11:09;;;;;;;7.30;2.42;;;12.70;99.90;;;;;;5050660;28;20049;-80
2022/10/16 07:13:36;;;;;;;7.95;2.15;;;12.70;99.90;;;;;;5050270;28;20037;-81
2022/10/16 07:16:06;;;;;;;9.77;3.10;;;12.70;99.90;;;;;;5051022;28;20037;-81
2022/10/16 07:18:32;;;;;;;5.93;2.60;;;12.70;99.90;;;;;;5050345;28;20028;-80
2022/10/16 07:21:19;;;;;;;4.45;2.20;;;12.80;99.90;;;;;;5033919;28;20410;-82
2022/10/16 07:23:45;;;;;;;5.78;2.60;;;12.80;99.90;;;;;;5051234;28;20398;-81
2022/10/16 07:26:11;;;;;;;6.15;2.40;;;12.80;99.90;;;;;;5050489;28;20045;-82
2022/10/16 07:28:37;;;;;;;5.35;2.25;;;12.80;99.90;;;;;;5051670;28;20072;-80
2022/10/16 07:31:05;;;;;;;6.57;2.92;;;12.80;99.90;;;;;;5053997;28;20467;-81
2022/10/16 07:33:32;;;;;;;4.63;2.30;;;12.80;99.90;;;;;;5053940;28;20187;-81
2022/10/16 07:35:58;;;;;;;5.82;2.33;;;12.70;99.90;;;;;;5054955;28;20703;-80
2022/10/16 07:38:23;;;;;;;4.47;2.00;;;12.70;99.90;;;;;;5054340;28;20037;-82
2022/10/16 07:41:00;;;;;;;4.53;2.63;;;12.80;99.90;;;;;;5054711;28;20652;-81
2022/10/16 07:43:26;;;;;;;7.78;2.58;;;12.80;99.90;;;;;;5054122;28;20119;-81
2022/10/16 07:45:53;;;;;;;6.07;2.42;;;12.80;99.90;;;;;;5037248;28;20032;-81
2022/10/16 07:48:19;;;;;;;4.30;2.15;;;12.80;99.90;;;;;;5053429;28;20047;-81
2022/10/16 07:50:45;;;;;;;5.20;2.28;;;12.80;99.90;;;;;;5053824;28;20041;-81
2022/10/16 07:53:11;;;;;;;5.80;2.50;;;12.90;99.90;;;;;;5053443;28;20045;-81
2022/10/16 07:55:36;;;;;;;3.42;2.40;;;12.90;99.90;;;;;;5053633;28;20036;-81
2022/10/16 07:58:02;;;;;;;5.57;2.53;;;12.90;99.90;;;;;;5054161;28;20033;-82
2022/10/16 08:00:27;;;;;;;4.60;2.50;;;13.00;99.90;;;;;;5055338;28;20039;-81
2022/10/16 08:02:53;;;;;;;3.83;2.50;;;13.10;99.90;;;;;;5053749;28;20036;-83
2022/10/16 08:05:18;;;;;;;7.45;2.78;;;13.20;99.90;;;;;;5047250;28;20053;-81
2022/10/16 08:07:49;;;;;;;5.38;2.50;;;13.30;99.90;;;;;;5046229;28;20040;-81
2022/10/16 08:10:21;;;;;;;5.45;2.10;;;13.40;99.90;;;;;;5053586;28;20383;-82
2022/10/16 08:12:46;;;;;;;4.63;2.42;;;13.30;99.90;;;;;;5036612;28;20037;-81
2022/10/16 08:15:12;;;;;;;6.22;2.50;;;13.40;99.90;;;;;;5053020;28;20118;-81
2022/10/16 08:17:38;;;;;;;4.80;2.08;;;13.40;99.90;;;;;;5027126;28;20075;-81
2022/10/16 08:20:05;;;;;;;5.18;2.30;;;13.40;99.90;;;;;;5032705;28;20041;-81
2022/10/16 08:22:31;;;;;;;6.07;1.95;;;13.40;99.90;;;;;;5053297;28;20040;-81
2022/10/16 08:24:56;;;;;;;3.95;2.10;;;13.40;99.90;;;;;;5039331;28;20045;-82
2022/10/16 08:27:22;;;;;;;4.13;1.77;;;13.40;99.90;;;;;;5053482;28;20033;-82
2022/10/16 08:29:49;;;;;;;6.38;2.20;;;13.50;99.90;;;;;;5053138;28;20037;-81
2022/10/16 08:32:15;;;;;;;4.25;1.77;;;13.60;99.90;;;;;;5053152;28;20162;-81
2022/10/16 08:34:40;;;;;;;5.38;1.98;;;13.80;99.90;;;;;;5052725;28;20501;-82
2022/10/16 08:37:07;;;;;;;5.18;1.85;;;13.90;99.90;;;;;;5053095;28;20045;-81
2022/10/16 08:39:33;;;;;;;6.03;1.88;;;14.00;99.90;;;;;;5052303;28;20095;-79
2022/10/16 08:42:40;;;;;;;4.18;1.38;;;14.10;99.90;;;;;;5035967;28;20601;-82
2022/10/16 08:45:12;;;;;;;5.05;1.65;;;14.10;99.90;;;;;;5052611;28;20068;-81
2022/10/16 08:47:56;;;;;;;3.20;1.17;;;14.20;99.90;;;;;;5052402;28;20040;-83
2022/10/16 08:50:25;;;;;;;3.58;1.83;;;14.20;99.90;;;;;;5049815;28;20065;-83
2022/10/16 08:52:51;;;;;;;7.78;1.88;;;14.30;99.90;;;;;;5052617;28;20041;-82
2022/10/16 08:55:42;;;;;;;7.28;1.73;;;14.40;99.90;;;;;;5052424;28;20041;-82
2022/10/16 08:58:14;;;;;;;5.20;1.63;;;14.50;99.90;;;;;;5052908;28;20037;-82
2022/10/16 09:00:41;;;;;;;6.10;1.40;;;14.70;99.90;;;;;;5052266;28;20116;-82
2022/10/16 09:03:32;;;;;;;5.38;1.65;;;14.70;99.90;;;;;;5052075;28;20427;-82
2022/10/16 09:06:12;;;;;;;5.25;1.63;;;14.70;99.90;;;;;;5052236;28;20498;-83
2022/10/16 09:09:02;;;;;;;4.20;1.55;;;14.80;99.90;;;;;;5052413;28;20044;-82
2022/10/16 09:11:52;;;;;;;5.40;1.90;;;14.90;99.90;;;;;;5052008;28;20421;-81
2022/10/16 09:14:47;;;;;;;6.35;1.60;;;15.10;99.90;;;;;;5042425;28;20045;-83
2022/10/16 09:17:21;;;;;;;5.05;1.70;;;15.20;99.90;;;;;;5038621;28;20048;-82
2022/10/16 09:19:56;;;;;;;7.40;1.88;;;15.20;99.90;;;;;;5035774;28;20041;-81
2022/10/16 09:22:27;;;;;;;10.85;1.50;;;15.10;99.90;;;;;;5052177;28;20051;-82
2022/10/16 09:24:59;;;;;;;6.13;1.70;;;15.20;99.90;;;;;;5051934;28;20051;-82
2022/10/16 09:27:25;;;;;;;7.78;1.80;;;15.20;99.90;;;;;;5052060;28;20398;-81
2022/10/16 09:29:51;;;;;;;6.07;1.60;;;15.30;99.90;;;;;;5051950;28;20041;-83
2022/10/16 09:32:20;;;;;;;5.50;2.05;;;15.20;99.90;;;;;;5037396;28;20049;-82
2022/10/16 09:34:50;;;;;;;6.45;1.60;;;15.20;99.90;;;;;;5051455;28;20055;-82
2022/10/16 09:37:19;;;;;;;9.95;2.22;;;15.20;99.90;;;;;;5051327;28;20028;-82
2022/10/16 09:39:50;;;;;;;5.57;1.83;;;15.30;99.90;;;;;;5051388;28;20036;-83
2022/10/16 09:42:22;;;;;;;6.30;1.70;;;15.30;99.90;;;;;;5034530;28;20029;-81
2022/10/16 09:44:53;;;;;;;7.90;1.80;;;15.20;99.90;;;;;;5051431;28;20678;-82
2022/10/16 09:47:22;;;;;;;9.25;1.63;;;15.30;99.90;;;;;;5051430;28;20060;-82
2022/10/16 09:49:56;;;;;;;7.63;1.80;;;15.40;99.90;;;;;;5051339;28;20044;-82
2022/10/16 09:52:22;;;;;;;10.30;1.90;;;15.50;99.90;;;;;;5050341;28;20410;-82
2022/10/16 09:55:13;;;;;;;7.28;1.80;;;15.60;99.90;;;;;;5051181;28;20047;-81
2022/10/16 09:57:49;;;;;;;7.50;1.77;;;15.70;99.90;;;;;;5051590;28;20048;-82
2022/10/16 10:00:19;;;;;;;8.13;1.90;;;15.70;99.90;;;;;;5038372;28;20380;-83
2022/10/16 10:02:45;;;;;;;7.93;1.80;;;15.80;99.90;;;;;;5051078;28;20037;-82
2022/10/16 10:05:23;;;;;;;11.00;2.20;;;15.80;99.90;;;;;;5051040;28;20040;-82
2022/10/16 10:07:56;;;;;;;10.13;2.00;;;15.80;99.90;;;;;;5050860;28;20090;-82
2022/10/16 10:10:23;;;;;;;12.63;3.13;;;15.80;99.90;;;;;;5050930;28;20033;-82
2022/10/16 10:12:48;;;;;;;7.40;2.33;;;15.90;99.90;;;;;;5050526;28;20040;-81
2022/10/16 10:15:21;;;;;;;10.68;1.92;;;15.80;99.90;;;;;;5051072;28;20052;-82
2022/10/16 10:17:54;;;;;;;9.75;1.88;;;15.70;99.90;;;;;;5051345;28;20060;-81
2022/10/16 10:20:31;;;;;;;11.07;2.00;;;15.70;99.90;;;;;;5050544;28;20118;-83
2022/10/16 10:22:57;;;;;;;7.72;1.58;;;15.80;99.90;;;;;;5050849;28;20102;-82
2022/10/16 10:25:31;;;;;;;12.43;2.10;;;15.80;99.90;;;;;;5051436;28;20033;-84
2022/10/16 10:28:08;;;;;;;9.00;2.03;;;15.80;99.90;;;;;;5050957;28;20049;-82
2022/10/16 10:30:47;;;;;;;10.05;1.60;;;15.90;99.90;;;;;;5050731;28;20072;-81
2022/10/16 10:33:30;;;;;;;9.73;1.92;;;16.00;99.90;;;;;;5050582;28;20045;-82
2022/10/16 10:36:33;;;;;;;9.27;1.80;;;16.00;99.90;;;;;;5050437;28;20048;-82
2022/10/16 10:39:06;;;;;;;8.68;1.52;;;16.00;99.90;;;;;;5036635;28;20395;-84
2022/10/16 10:41:54;;;;;;;9.73;2.17;;;16.10;99.90;;;;;;5050482;28;20411;-81
2022/10/16 10:44:26;;;;;;;11.68;2.08;;;16.20;99.90;;;;;;5050995;28;20104;-82
2022/10/16 10:46:59;;;;;;;8.15;1.65;;;16.30;99.90;;;;;;5050896;28;20041;-82
2022/10/16 10:49:30;;;;;;;9.25;2.03;;;16.40;99.90;;;;;;5050342;28;20094;-83
2022/10/16 10:52:05;;;;;;;7.78;2.10;;;16.40;99.90;;;;;;5034393;28;20045;-81
2022/10/16 10:55:07;;;;;;;9.80;2.20;;;16.40;99.90;;;;;;5049441;28;20033;-83
2022/10/16 10:57:54;;;;;;;9.93;2.00;;;16.50;99.90;;;;;;5050492;28;20090;-84
2022/10/16 11:00:44;;;;;;;14.02;2.17;;;16.60;99.90;;;;;;5021720;28;20095;-84
2022/10/16 11:03:45;;;;;;;12.27;2.15;;;16.60;99.90;;;;;;5051869;28;20821;-82
2022/10/16 11:06:35;;;;;;;11.02;1.70;;;16.50;99.90;;;;;;5040344;28;20119;-83
2022/10/16 11:09:12;;;;;;;9.95;2.00;;;16.40;99.90;;;;;;5043238;28;20116;-84
2022/10/16 11:11:43;;;;;;;11.13;1.60;;;16.40;99.90;;;;;;5053520;28;20128;-83
2022/10/16 11:14:12;;;;;;;9.05;1.77;;;16.20;99.90;;;;;;5037282;28;20040;-82
2022/10/16 11:16:43;;;;;;;13.52;2.55;;;16.20;99.90;;;;;;5053451;28;20041;-83
2022/10/16 11:19:26;;;;;;;9.40;1.80;;;16.10;99.90;;;;;;5053568;28;20083;-82
2022/10/16 11:22:23;;;;;;;10.25;2.38;;;16.10;99.90;;;;;;5053369;28;20218;-83
2022/10/16 11:24:55;;;;;;;10.27;2.15;;;16.30;99.90;;;;;;5045031;28;20045;-82
2022/10/16 11:27:35;;;;;;;9.80;1.67;;;16.50;99.90;;;;;;5053295;28;20048;-85
2022/10/16 11:30:05;;;;;;;12.95;2.03;;;16.60;99.90;;;;;;5037291;28;20045;-82
2022/10/16 11:32:38;;;;;;;8.18;2.03;;;16.60;99.90;;;;;;5036320;28;20048;-83
2022/10/16 11:35:23;;;;;;;11.05;2.03;;;16.70;99.90;;;;;;5053444;28;20044;-83
2022/10/16 11:37:51;;;;;;;12.65;2.17;;;16.80;99.90;;;;;;5053143;28;20039;-82
2022/10/16 11:40:34;;;;;;;11.18;2.53;;;16.90;99.90;;;;;;5054596;28;20453;-80
2022/10/16 11:43:32;;;;;;;10.87;2.03;;;17.00;99.90;;;;;;5037335;28;20037;-81
2022/10/16 11:46:04;;;;;;;11.32;2.35;;;17.20;99.90;;;;;;5037859;28;20915;-81
2022/10/16 11:48:42;;;;;;;8.05;1.70;;;17.30;99.90;;;;;;5054393;28;20041;-81
2022/10/16 11:51:24;;;;;;;9.50;1.90;;;17.40;99.90;;;;;;5037081;28;20495;-81
2022/10/16 11:54:16;;;;;;;9.23;1.92;;;17.40;99.90;;;;;;5037442;28;20491;-81
2022/10/16 11:56:44;;;;;;;14.68;2.00;;;17.50;99.90;;;;;;5055038;28;20142;-81
2022/10/16 11:59:41;;;;;;;8.65;2.30;;;17.50;99.90;;;;;;5055081;28;20044;-81
2022/10/16 12:02:20;;;;;;;10.35;1.98;;;17.60;99.90;;;;;;5053753;28;20075;-80
2022/10/16 12:04:56;;;;;;;12.80;1.92;;;17.80;99.90;;;;;;5053541;28;20117;-81
2022/10/16 12:07:32;;;;;;;12.00;2.83;;;18.00;99.90;;;;;;5053878;28;20055;-81
2022/10/16 12:10:00;;;;;;;8.25;1.70;;;18.10;99.90;;;;;;5053505;28;20045;-80
2022/10/16 12:12:35;;;;;;;9.15;1.80;;;18.20;99.90;;;;;;5053411;28;20052;-81
2022/10/16 12:15:17;;;;;;;10.85;2.17;;;18.40;99.90;;;;;;5036470;28;20444;-81
2022/10/16 12:17:43;;;;;;;10.63;2.40;;;18.30;99.90;;;;;;5053698;28;20112;-82
2022/10/16 12:20:11;;;;;;;11.90;2.00;;;18.40;99.90;;;;;;5053780;28;20075;-81
2022/10/16 12:22:47;;;;;;;10.90;1.83;;;18.30;99.90;;;;;;5037090;28;20380;-80
2022/10/16 12:25:37;;;;;;;11.98;1.95;;;18.30;99.90;;;;;;5053570;28;20495;-81
2022/10/16 12:28:15;;;;;;;7.93;1.73;;;18.10;99.90;;;;;;5036633;28;20044;-82
2022/10/16 12:30:42;;;;;;;10.07;1.88;;;18.00;99.90;;;;;;5053198;28;20083;-83
2022/10/16 12:33:27;;;;;;;7.70;1.70;;;17.90;99.90;;;;;;5053097;28;20124;-81
2022/10/16 12:35:53;;;;;;;8.50;1.92;;;17.80;99.90;;;;;;5036556;28;20029;-81
2022/10/16 12:38:27;;;;;;;8.90;2.35;;;17.60;99.90;;;;;;5036746;28;20037;-81
2022/10/16 12:41:00;;;;;;;8.48;1.65;;;17.40;99.90;;;;;;5053028;28;20041;-81
2022/10/16 12:43:28;;;;;;;10.23;1.77;;;17.10;99.90;;;;;;5053451;28;20110;-81
2022/10/16 12:46:28;;;;;;;10.13;2.05;;;16.80;99.90;;;;;;5052775;28;20037;-80
2022/10/16 12:49:13;;;;;;;6.80;1.50;;;16.60;99.90;;;;;;5033448;28;20052;-81
2022/10/16 12:51:40;;;;;;;11.27;1.80;;;16.50;99.90;;;;;;5045682;28;20037;-80
2022/10/16 12:54:30;;;;;;;10.52;1.88;;;16.40;99.90;;;;;;5048376;28;20123;-80
2022/10/16 12:57:39;;;;;;;12.02;2.42;;;16.30;99.90;;;;;;5052766;28;20128;-81
2022/10/16 13:00:30;;;;;;;11.77;2.15;;;16.20;99.90;;;;;;5052531;28;20123;-81
2022/10/16 13:03:33;;;;;;;10.98;2.33;;;16.20;99.90;;;;;;5052405;28;20501;-81
2022/10/16 13:06:19;;;;;;;11.38;2.08;;;16.10;99.90;;;;;;5035793;28;20048;-81